sensor_id;sensor_type;location;lat;lon;timestamp;P1;durP1;ratioP1;P2;durP2;ratioP2
49223;SDS011;35050;51.316;5.994;2023-12-20T00:01:06;12.80;;;8.38;;
49223;SDS011;35050;51.316;5.994;2023-12-20T00:03:31;13.15;;;8.73;;
49223;SDS011;35050;51.316;5.994;2023-12-20T00:05:57;10.50;;;8.02;;
49223;SDS011;35050;51.316;5.994;2023-12-20T00:08:23;17.50;;;9.27;;
49223;SDS011;35050;51.316;5.994;2023-12-20T00:10:48;15.27;;;9.38;;
49223;SDS011;35050;51.316;5.994;2023-12-20T00:13:14;12.52;;;8.52;;
49223;SDS011;35050;51.316;5.994;2023-12-20T00:15:39;11.88;;;8.32;;
49223;SDS011;35050;51.316;5.994;2023-12-20T00:18:05;14.20;;;8.30;;
49223;SDS011;35050;51.316;5.994;2023-12-20T00:20:31;11.10;;;8.10;;
49223;SDS011;35050;51.316;5.994;2023-12-20T00:22:56;10.75;;;7.32;;
49223;SDS011;35050;51.316;5.994;2023-12-20T00:25:23;12.77;;;7.68;;
49223;SDS011;35050;51.316;5.994;2023-12-20T00:27:49;13.35;;;6.78;;
49223;SDS011;35050;51.316;5.994;2023-12-20T00:30:14;13.05;;;6.85;;
49223;SDS011;35050;51.316;5.994;2023-12-20T00:32:40;14.45;;;6.45;;
49223;SDS011;35050;51.316;5.994;2023-12-20T00:35:11;13.88;;;8.32;;
49223;SDS011;35050;51.316;5.994;2023-12-20T00:37:40;13.95;;;6.40;;
49223;SDS011;35050;51.316;5.994;2023-12-20T00:40:05;12.18;;;5.88;;
49223;SDS011;35050;51.316;5.994;2023-12-20T00:42:32;12.50;;;6.03;;
49223;SDS011;35050;51.316;5.994;2023-12-20T00:44:58;12.30;;;5.30;;
49223;SDS011;35050;51.316;5.994;2023-12-20T00:47:24;14.07;;;5.60;;
49223;SDS011;35050;51.316;5.994;2023-12-20T00:49:50;11.48;;;4.70;;
49223;SDS011;35050;51.316;5.994;2023-12-20T00:52:15;10.93;;;4.57;;
49223;SDS011;35050;51.316;5.994;2023-12-20T00:54:42;10.52;;;4.30;;
49223;SDS011;35050;51.316;5.994;2023-12-20T00:57:08;12.10;;;3.92;;
49223;SDS011;35050;51.316;5.994;2023-12-20T00:59:34;9.57;;;3.90;;
49223;SDS011;35050;51.316;5.994;2023-12-20T01:02:00;8.50;;;3.70;;
49223;SDS011;35050;51.316;5.994;2023-12-20T01:04:25;9.45;;;3.30;;
49223;SDS011;35050;51.316;5.994;2023-12-20T01:06:51;13.40;;;3.80;;
49223;SDS011;35050;51.316;5.994;2023-12-20T01:09:17;15.48;;;4.13;;
49223;SDS011;35050;51.316;5.994;2023-12-20T01:11:43;12.48;;;3.08;;
49223;SDS011;35050;51.316;5.994;2023-12-20T01:14:09;7.95;;;2.63;;
49223;SDS011;35050;51.316;5.994;2023-12-20T01:16:35;9.05;;;2.70;;
49223;SDS011;35050;51.316;5.994;2023-12-20T01:19:00;13.00;;;3.47;;
49223;SDS011;35050;51.316;5.994;2023-12-20T01:21:26;10.57;;;2.90;;
49223;SDS011;35050;51.316;5.994;2023-12-20T01:23:51;11.68;;;2.90;;
49223;SDS011;35050;51.316;5.994;2023-12-20T01:26:17;11.23;;;2.38;;
49223;SDS011;35050;51.316;5.994;2023-12-20T01:28:43;11.73;;;2.95;;
49223;SDS011;35050;51.316;5.994;2023-12-20T01:31:08;11.27;;;2.80;;
49223;SDS011;35050;51.316;5.994;2023-12-20T01:33:34;12.13;;;2.55;;
49223;SDS011;35050;51.316;5.994;2023-12-20T01:36:00;8.57;;;2.53;;
49223;SDS011;35050;51.316;5.994;2023-12-20T01:38:25;8.05;;;2.30;;
49223;SDS011;35050;51.316;5.994;2023-12-20T01:40:51;8.85;;;2.20;;
49223;SDS011;35050;51.316;5.994;2023-12-20T01:43:16;9.82;;;2.72;;
49223;SDS011;35050;51.316;5.994;2023-12-20T01:45:42;7.03;;;2.50;;
49223;SDS011;35050;51.316;5.994;2023-12-20T01:48:08;11.98;;;2.47;;
49223;SDS011;35050;51.316;5.994;2023-12-20T01:50:35;6.85;;;2.25;;
49223;SDS011;35050;51.316;5.994;2023-12-20T01:53:02;14.52;;;2.50;;
49223;SDS011;35050;51.316;5.994;2023-12-20T01:55:31;11.65;;;2.10;;
49223;SDS011;35050;51.316;5.994;2023-12-20T01:57:59;13.85;;;2.60;;
49223;SDS011;35050;51.316;5.994;2023-12-20T02:00:26;11.60;;;2.88;;
49223;SDS011;35050;51.316;5.994;2023-12-20T02:02:53;10.50;;;2.17;;
49223;SDS011;35050;51.316;5.994;2023-12-20T02:05:20;6.72;;;1.75;;
49223;SDS011;35050;51.316;5.994;2023-12-20T02:07:47;9.45;;;2.80;;
49223;SDS011;35050;51.316;5.994;2023-12-20T02:10:13;10.45;;;2.08;;
49223;SDS011;35050;51.316;5.994;2023-12-20T02:12:40;8.18;;;2.25;;
49223;SDS011;35050;51.316;5.994;2023-12-20T02:15:06;13.48;;;3.10;;
49223;SDS011;35050;51.316;5.994;2023-12-20T02:17:32;11.48;;;2.33;;
49223;SDS011;35050;51.316;5.994;2023-12-20T02:19:58;15.27;;;2.80;;
49223;SDS011;35050;51.316;5.994;2023-12-20T02:22:24;10.60;;;2.10;;
49223;SDS011;35050;51.316;5.994;2023-12-20T02:24:49;11.43;;;1.98;;
49223;SDS011;35050;51.316;5.994;2023-12-20T02:27:15;12.25;;;3.30;;
49223;SDS011;35050;51.316;5.994;2023-12-20T02:29:44;9.07;;;2.20;;
49223;SDS011;35050;51.316;5.994;2023-12-20T02:32:12;9.48;;;2.08;;
49223;SDS011;35050;51.316;5.994;2023-12-20T02:34:38;9.57;;;3.30;;
49223;SDS011;35050;51.316;5.994;2023-12-20T02:37:03;12.68;;;2.35;;
49223;SDS011;35050;51.316;5.994;2023-12-20T02:39:29;15.38;;;3.17;;
49223;SDS011;35050;51.316;5.994;2023-12-20T02:41:55;7.47;;;1.90;;
49223;SDS011;35050;51.316;5.994;2023-12-20T02:44:21;7.18;;;2.03;;
49223;SDS011;35050;51.316;5.994;2023-12-20T02:46:46;10.93;;;2.65;;
49223;SDS011;35050;51.316;5.994;2023-12-20T02:49:12;11.35;;;2.38;;
49223;SDS011;35050;51.316;5.994;2023-12-20T02:51:37;10.85;;;2.28;;
49223;SDS011;35050;51.316;5.994;2023-12-20T02:54:03;10.98;;;2.17;;
49223;SDS011;35050;51.316;5.994;2023-12-20T02:56:29;12.73;;;2.78;;
49223;SDS011;35050;51.316;5.994;2023-12-20T02:58:55;16.83;;;2.60;;
49223;SDS011;35050;51.316;5.994;2023-12-20T03:01:21;14.50;;;3.33;;
49223;SDS011;35050;51.316;5.994;2023-12-20T03:03:46;12.38;;;2.47;;
49223;SDS011;35050;51.316;5.994;2023-12-20T03:06:15;10.82;;;2.70;;
49223;SDS011;35050;51.316;5.994;2023-12-20T03:08:44;8.50;;;2.20;;
49223;SDS011;35050;51.316;5.994;2023-12-20T03:11:10;11.48;;;2.53;;
49223;SDS011;35050;51.316;5.994;2023-12-20T03:13:36;14.05;;;2.67;;
49223;SDS011;35050;51.316;5.994;2023-12-20T03:16:07;11.25;;;2.78;;
49223;SDS011;35050;51.316;5.994;2023-12-20T03:18:37;9.98;;;2.42;;
49223;SDS011;35050;51.316;5.994;2023-12-20T03:21:02;11.63;;;2.95;;
49223;SDS011;35050;51.316;5.994;2023-12-20T03:23:29;10.20;;;3.13;;
49223;SDS011;35050;51.316;5.994;2023-12-20T03:25:55;9.13;;;2.33;;
49223;SDS011;35050;51.316;5.994;2023-12-20T03:28:21;12.40;;;2.63;;
49223;SDS011;35050;51.316;5.994;2023-12-20T03:30:48;11.30;;;4.60;;
49223;SDS011;35050;51.316;5.994;2023-12-20T03:33:13;9.85;;;2.88;;
49223;SDS011;35050;51.316;5.994;2023-12-20T03:35:39;14.48;;;3.15;;
49223;SDS011;35050;51.316;5.994;2023-12-20T03:38:05;9.23;;;3.15;;
49223;SDS011;35050;51.316;5.994;2023-12-20T03:40:30;9.93;;;3.15;;
49223;SDS011;35050;51.316;5.994;2023-12-20T03:42:56;12.10;;;3.25;;
49223;SDS011;35050;51.316;5.994;2023-12-20T03:45:21;10.45;;;3.10;;
49223;SDS011;35050;51.316;5.994;2023-12-20T03:47:47;16.42;;;4.50;;
49223;SDS011;35050;51.316;5.994;2023-12-20T03:50:13;13.30;;;3.75;;
49223;SDS011;35050;51.316;5.994;2023-12-20T03:52:39;13.20;;;3.72;;
49223;SDS011;35050;51.316;5.994;2023-12-20T03:55:05;15.65;;;3.47;;
49223;SDS011;35050;51.316;5.994;2023-12-20T03:57:31;15.95;;;4.20;;
49223;SDS011;35050;51.316;5.994;2023-12-20T03:59:56;16.15;;;4.95;;
49223;SDS011;35050;51.316;5.994;2023-12-20T04:02:22;9.05;;;3.92;;
49223;SDS011;35050;51.316;5.994;2023-12-20T04:04:47;14.43;;;3.92;;
49223;SDS011;35050;51.316;5.994;2023-12-20T04:07:13;16.02;;;4.50;;
49223;SDS011;35050;51.316;5.994;2023-12-20T04:09:40;13.20;;;5.35;;
49223;SDS011;35050;51.316;5.994;2023-12-20T04:12:06;18.45;;;4.88;;
49223;SDS011;35050;51.316;5.994;2023-12-20T04:14:32;12.57;;;4.10;;
49223;SDS011;35050;51.316;5.994;2023-12-20T04:16:57;13.23;;;4.18;;
49223;SDS011;35050;51.316;5.994;2023-12-20T04:19:23;10.75;;;4.40;;
49223;SDS011;35050;51.316;5.994;2023-12-20T04:21:49;15.02;;;4.80;;
49223;SDS011;35050;51.316;5.994;2023-12-20T04:24:14;11.20;;;4.15;;
49223;SDS011;35050;51.316;5.994;2023-12-20T04:26:40;14.23;;;4.60;;
49223;SDS011;35050;51.316;5.994;2023-12-20T04:29:06;18.60;;;5.25;;
49223;SDS011;35050;51.316;5.994;2023-12-20T04:31:31;13.25;;;4.50;;
49223;SDS011;35050;51.316;5.994;2023-12-20T04:33:57;13.27;;;4.35;;
49223;SDS011;35050;51.316;5.994;2023-12-20T04:36:22;13.20;;;4.55;;
49223;SDS011;35050;51.316;5.994;2023-12-20T04:38:50;12.98;;;4.60;;
49223;SDS011;35050;51.316;5.994;2023-12-20T04:41:15;16.20;;;5.22;;
49223;SDS011;35050;51.316;5.994;2023-12-20T04:43:43;17.67;;;5.30;;
49223;SDS011;35050;51.316;5.994;2023-12-20T04:46:09;16.60;;;5.80;;
49223;SDS011;35050;51.316;5.994;2023-12-20T04:48:34;13.45;;;4.72;;
49223;SDS011;35050;51.316;5.994;2023-12-20T04:51:00;18.42;;;5.75;;
49223;SDS011;35050;51.316;5.994;2023-12-20T04:53:26;12.45;;;4.80;;
49223;SDS011;35050;51.316;5.994;2023-12-20T04:55:52;15.68;;;6.55;;
49223;SDS011;35050;51.316;5.994;2023-12-20T04:58:18;19.05;;;5.40;;
49223;SDS011;35050;51.316;5.994;2023-12-20T05:00:44;14.35;;;5.97;;
49223;SDS011;35050;51.316;5.994;2023-12-20T05:03:09;16.98;;;5.63;;
49223;SDS011;35050;51.316;5.994;2023-12-20T05:05:35;15.88;;;5.30;;
49223;SDS011;35050;51.316;5.994;2023-12-20T05:08:01;12.57;;;5.25;;
49223;SDS011;35050;51.316;5.994;2023-12-20T05:10:27;18.58;;;5.35;;
49223;SDS011;35050;51.316;5.994;2023-12-20T05:12:52;12.95;;;4.55;;
49223;SDS011;35050;51.316;5.994;2023-12-20T05:15:18;21.35;;;4.82;;
49223;SDS011;35050;51.316;5.994;2023-12-20T05:17:44;20.83;;;5.43;;
49223;SDS011;35050;51.316;5.994;2023-12-20T05:20:09;14.65;;;4.68;;
49223;SDS011;35050;51.316;5.994;2023-12-20T05:22:35;11.60;;;4.65;;
49223;SDS011;35050;51.316;5.994;2023-12-20T05:25:01;22.27;;;6.13;;
49223;SDS011;35050;51.316;5.994;2023-12-20T05:27:27;16.38;;;5.03;;
49223;SDS011;35050;51.316;5.994;2023-12-20T05:29:52;13.82;;;4.00;;
49223;SDS011;35050;51.316;5.994;2023-12-20T05:32:18;17.60;;;4.60;;
49223;SDS011;35050;51.316;5.994;2023-12-20T05:34:43;20.02;;;4.90;;
49223;SDS011;35050;51.316;5.994;2023-12-20T05:37:09;11.50;;;4.18;;
49223;SDS011;35050;51.316;5.994;2023-12-20T05:39:35;14.07;;;3.85;;
49223;SDS011;35050;51.316;5.994;2023-12-20T05:42:00;14.43;;;5.20;;
49223;SDS011;35050;51.316;5.994;2023-12-20T05:44:26;12.23;;;4.07;;
49223;SDS011;35050;51.316;5.994;2023-12-20T05:46:51;16.17;;;4.38;;
49223;SDS011;35050;51.316;5.994;2023-12-20T05:49:17;16.90;;;4.65;;
49223;SDS011;35050;51.316;5.994;2023-12-20T05:51:43;13.18;;;4.13;;
49223;SDS011;35050;51.316;5.994;2023-12-20T05:54:09;20.02;;;4.70;;
49223;SDS011;35050;51.316;5.994;2023-12-20T05:56:34;18.23;;;5.00;;
49223;SDS011;35050;51.316;5.994;2023-12-20T05:59:00;13.48;;;4.28;;
49223;SDS011;35050;51.316;5.994;2023-12-20T06:01:26;17.08;;;4.30;;
49223;SDS011;35050;51.316;5.994;2023-12-20T06:03:51;14.00;;;4.00;;
49223;SDS011;35050;51.316;5.994;2023-12-20T06:06:17;15.45;;;4.15;;
49223;SDS011;35050;51.316;5.994;2023-12-20T06:08:43;18.92;;;4.10;;
49223;SDS011;35050;51.316;5.994;2023-12-20T06:11:08;16.58;;;4.80;;
49223;SDS011;35050;51.316;5.994;2023-12-20T06:13:34;13.70;;;3.90;;
49223;SDS011;35050;51.316;5.994;2023-12-20T06:16:00;17.05;;;4.25;;
49223;SDS011;35050;51.316;5.994;2023-12-20T06:18:26;14.90;;;4.50;;
49223;SDS011;35050;51.316;5.994;2023-12-20T06:20:51;16.50;;;4.65;;
49223;SDS011;35050;51.316;5.994;2023-12-20T06:23:17;16.98;;;4.63;;
49223;SDS011;35050;51.316;5.994;2023-12-20T06:25:43;17.45;;;4.75;;
49223;SDS011;35050;51.316;5.994;2023-12-20T06:28:09;22.58;;;4.68;;
49223;SDS011;35050;51.316;5.994;2023-12-20T06:30:35;28.75;;;5.03;;
49223;SDS011;35050;51.316;5.994;2023-12-20T06:33:01;16.55;;;4.55;;
49223;SDS011;35050;51.316;5.994;2023-12-20T06:35:27;18.10;;;4.43;;
49223;SDS011;35050;51.316;5.994;2023-12-20T06:37:53;15.50;;;4.00;;
49223;SDS011;35050;51.316;5.994;2023-12-20T06:40:18;16.58;;;4.18;;
49223;SDS011;35050;51.316;5.994;2023-12-20T06:42:44;18.50;;;4.05;;
49223;SDS011;35050;51.316;5.994;2023-12-20T06:45:11;18.67;;;4.47;;
49223;SDS011;35050;51.316;5.994;2023-12-20T06:47:37;14.40;;;4.20;;
49223;SDS011;35050;51.316;5.994;2023-12-20T06:50:03;16.98;;;3.85;;
49223;SDS011;35050;51.316;5.994;2023-12-20T06:52:29;16.33;;;4.40;;
49223;SDS011;35050;51.316;5.994;2023-12-20T06:54:55;16.52;;;4.18;;
49223;SDS011;35050;51.316;5.994;2023-12-20T06:57:20;13.10;;;4.15;;
49223;SDS011;35050;51.316;5.994;2023-12-20T06:59:46;20.38;;;4.88;;
49223;SDS011;35050;51.316;5.994;2023-12-20T07:02:12;11.45;;;3.38;;
49223;SDS011;35050;51.316;5.994;2023-12-20T07:04:40;12.30;;;3.63;;
49223;SDS011;35050;51.316;5.994;2023-12-20T07:07:06;14.15;;;4.63;;
49223;SDS011;35050;51.316;5.994;2023-12-20T07:09:32;19.65;;;3.90;;
49223;SDS011;35050;51.316;5.994;2023-12-20T07:11:58;12.85;;;3.55;;
49223;SDS011;35050;51.316;5.994;2023-12-20T07:14:24;11.65;;;3.47;;
49223;SDS011;35050;51.316;5.994;2023-12-20T07:16:50;16.33;;;3.92;;
49223;SDS011;35050;51.316;5.994;2023-12-20T07:19:15;17.40;;;4.40;;
49223;SDS011;35050;51.316;5.994;2023-12-20T07:21:41;21.88;;;3.85;;
49223;SDS011;35050;51.316;5.994;2023-12-20T07:24:07;16.80;;;5.47;;
49223;SDS011;35050;51.316;5.994;2023-12-20T07:26:32;14.43;;;3.90;;
49223;SDS011;35050;51.316;5.994;2023-12-20T07:28:59;14.63;;;3.90;;
49223;SDS011;35050;51.316;5.994;2023-12-20T07:31:24;11.75;;;3.80;;
49223;SDS011;35050;51.316;5.994;2023-12-20T07:33:50;20.25;;;4.13;;
49223;SDS011;35050;51.316;5.994;2023-12-20T07:36:16;11.45;;;3.72;;
49223;SDS011;35050;51.316;5.994;2023-12-20T07:38:41;13.30;;;3.53;;
49223;SDS011;35050;51.316;5.994;2023-12-20T07:41:09;15.68;;;3.50;;
49223;SDS011;35050;51.316;5.994;2023-12-20T07:43:35;17.92;;;3.83;;
49223;SDS011;35050;51.316;5.994;2023-12-20T07:46:07;19.27;;;3.95;;
49223;SDS011;35050;51.316;5.994;2023-12-20T07:48:37;14.52;;;4.05;;
49223;SDS011;35050;51.316;5.994;2023-12-20T07:51:06;13.00;;;3.85;;
49223;SDS011;35050;51.316;5.994;2023-12-20T07:53:33;17.20;;;4.38;;
49223;SDS011;35050;51.316;5.994;2023-12-20T07:56:00;17.73;;;4.25;;
49223;SDS011;35050;51.316;5.994;2023-12-20T07:58:26;17.45;;;4.25;;
49223;SDS011;35050;51.316;5.994;2023-12-20T08:00:51;18.75;;;4.20;;
49223;SDS011;35050;51.316;5.994;2023-12-20T08:03:17;16.92;;;3.90;;
49223;SDS011;35050;51.316;5.994;2023-12-20T08:05:42;20.83;;;3.85;;
49223;SDS011;35050;51.316;5.994;2023-12-20T08:08:08;16.23;;;3.95;;
49223;SDS011;35050;51.316;5.994;2023-12-20T08:10:33;21.15;;;4.13;;
49223;SDS011;35050;51.316;5.994;2023-12-20T08:13:00;24.90;;;4.20;;
49223;SDS011;35050;51.316;5.994;2023-12-20T08:15:25;15.93;;;3.95;;
49223;SDS011;35050;51.316;5.994;2023-12-20T08:17:51;14.80;;;4.15;;
49223;SDS011;35050;51.316;5.994;2023-12-20T08:20:17;18.52;;;3.85;;
49223;SDS011;35050;51.316;5.994;2023-12-20T08:22:42;12.18;;;4.00;;
49223;SDS011;35050;51.316;5.994;2023-12-20T08:25:08;21.35;;;4.38;;
49223;SDS011;35050;51.316;5.994;2023-12-20T08:27:36;22.38;;;4.63;;
49223;SDS011;35050;51.316;5.994;2023-12-20T08:30:04;20.67;;;3.75;;
49223;SDS011;35050;51.316;5.994;2023-12-20T08:32:31;13.30;;;4.03;;
49223;SDS011;35050;51.316;5.994;2023-12-20T08:34:57;20.00;;;4.55;;
49223;SDS011;35050;51.316;5.994;2023-12-20T08:37:23;18.70;;;4.45;;
49223;SDS011;35050;51.316;5.994;2023-12-20T08:39:48;19.45;;;4.15;;
49223;SDS011;35050;51.316;5.994;2023-12-20T08:42:14;16.33;;;3.55;;
49223;SDS011;35050;51.316;5.994;2023-12-20T08:44:40;14.80;;;4.07;;
49223;SDS011;35050;51.316;5.994;2023-12-20T08:47:05;10.52;;;3.75;;
49223;SDS011;35050;51.316;5.994;2023-12-20T08:49:31;15.55;;;3.55;;
49223;SDS011;35050;51.316;5.994;2023-12-20T08:51:56;17.40;;;3.78;;
49223;SDS011;35050;51.316;5.994;2023-12-20T08:54:22;16.15;;;4.35;;
49223;SDS011;35050;51.316;5.994;2023-12-20T08:56:48;14.93;;;3.42;;
49223;SDS011;35050;51.316;5.994;2023-12-20T08:59:13;14.10;;;3.55;;
49223;SDS011;35050;51.316;5.994;2023-12-20T09:01:39;15.00;;;3.42;;
49223;SDS011;35050;51.316;5.994;2023-12-20T09:04:05;22.15;;;4.57;;
49223;SDS011;35050;51.316;5.994;2023-12-20T09:06:31;21.05;;;3.78;;
49223;SDS011;35050;51.316;5.994;2023-12-20T09:08:57;14.50;;;3.85;;
49223;SDS011;35050;51.316;5.994;2023-12-20T09:11:22;24.48;;;4.20;;
49223;SDS011;35050;51.316;5.994;2023-12-20T09:13:48;15.80;;;4.03;;
49223;SDS011;35050;51.316;5.994;2023-12-20T09:16:13;15.77;;;3.75;;
49223;SDS011;35050;51.316;5.994;2023-12-20T09:18:40;15.63;;;3.83;;
49223;SDS011;35050;51.316;5.994;2023-12-20T09:21:06;17.08;;;3.78;;
49223;SDS011;35050;51.316;5.994;2023-12-20T09:23:32;18.63;;;4.10;;
49223;SDS011;35050;51.316;5.994;2023-12-20T09:25:58;14.30;;;3.60;;
49223;SDS011;35050;51.316;5.994;2023-12-20T09:28:23;17.65;;;3.80;;
49223;SDS011;35050;51.316;5.994;2023-12-20T09:30:49;15.45;;;3.50;;
49223;SDS011;35050;51.316;5.994;2023-12-20T09:33:15;14.35;;;3.85;;
49223;SDS011;35050;51.316;5.994;2023-12-20T09:35:41;20.25;;;4.10;;
49223;SDS011;35050;51.316;5.994;2023-12-20T09:38:07;15.07;;;3.38;;
49223;SDS011;35050;51.316;5.994;2023-12-20T09:40:33;14.10;;;3.53;;
49223;SDS011;35050;51.316;5.994;2023-12-20T09:43:04;17.63;;;3.55;;
49223;SDS011;35050;51.316;5.994;2023-12-20T09:45:35;14.40;;;3.45;;
49223;SDS011;35050;51.316;5.994;2023-12-20T09:48:02;15.15;;;3.95;;
49223;SDS011;35050;51.316;5.994;2023-12-20T09:50:30;15.75;;;3.35;;
49223;SDS011;35050;51.316;5.994;2023-12-20T09:52:57;18.88;;;3.67;;
49223;SDS011;35050;51.316;5.994;2023-12-20T09:55:25;13.88;;;3.88;;
49223;SDS011;35050;51.316;5.994;2023-12-20T09:57:53;16.95;;;3.60;;
49223;SDS011;35050;51.316;5.994;2023-12-20T10:00:19;16.35;;;3.80;;
49223;SDS011;35050;51.316;5.994;2023-12-20T10:02:55;12.02;;;3.15;;
49223;SDS011;35050;51.316;5.994;2023-12-20T10:05:27;14.13;;;3.33;;
49223;SDS011;35050;51.316;5.994;2023-12-20T10:07:54;17.83;;;4.28;;
49223;SDS011;35050;51.316;5.994;2023-12-20T10:10:19;15.88;;;3.53;;
49223;SDS011;35050;51.316;5.994;2023-12-20T10:13:04;13.23;;;3.33;;
49223;SDS011;35050;51.316;5.994;2023-12-20T10:15:40;14.88;;;3.15;;
49223;SDS011;35050;51.316;5.994;2023-12-20T10:18:06;16.27;;;3.90;;
49223;SDS011;35050;51.316;5.994;2023-12-20T10:20:32;15.65;;;4.15;;
49223;SDS011;35050;51.316;5.994;2023-12-20T10:22:58;17.65;;;4.13;;
49223;SDS011;35050;51.316;5.994;2023-12-20T10:25:24;22.13;;;4.07;;
49223;SDS011;35050;51.316;5.994;2023-12-20T10:27:57;18.00;;;4.07;;
49223;SDS011;35050;51.316;5.994;2023-12-20T10:30:38;23.85;;;4.28;;
49223;SDS011;35050;51.316;5.994;2023-12-20T10:33:05;15.98;;;4.85;;
49223;SDS011;35050;51.316;5.994;2023-12-20T10:35:31;15.63;;;3.38;;
49223;SDS011;35050;51.316;5.994;2023-12-20T10:37:57;20.50;;;4.05;;
49223;SDS011;35050;51.316;5.994;2023-12-20T10:40:28;19.60;;;4.15;;
49223;SDS011;35050;51.316;5.994;2023-12-20T10:42:55;13.23;;;3.28;;
49223;SDS011;35050;51.316;5.994;2023-12-20T10:45:22;16.08;;;3.92;;
49223;SDS011;35050;51.316;5.994;2023-12-20T10:47:48;15.68;;;3.67;;
49223;SDS011;35050;51.316;5.994;2023-12-20T10:50:15;15.20;;;3.95;;
49223;SDS011;35050;51.316;5.994;2023-12-20T10:52:43;16.20;;;3.72;;
49223;SDS011;35050;51.316;5.994;2023-12-20T10:55:10;17.30;;;4.22;;
49223;SDS011;35050;51.316;5.994;2023-12-20T10:57:36;20.80;;;4.72;;
49223;SDS011;35050;51.316;5.994;2023-12-20T11:00:02;14.20;;;4.20;;
49223;SDS011;35050;51.316;5.994;2023-12-20T11:02:33;8.80;;;3.40;;
49223;SDS011;35050;51.316;5.994;2023-12-20T11:05:25;14.63;;;3.25;;
49223;SDS011;35050;51.316;5.994;2023-12-20T11:08:15;14.88;;;3.78;;
49223;SDS011;35050;51.316;5.994;2023-12-20T11:13:17;12.40;;;3.25;;
49223;SDS011;35050;51.316;5.994;2023-12-20T11:15:48;14.98;;;3.47;;
49223;SDS011;35050;51.316;5.994;2023-12-20T11:18:14;15.85;;;3.97;;
49223;SDS011;35050;51.316;5.994;2023-12-20T11:20:40;12.73;;;3.13;;
49223;SDS011;35050;51.316;5.994;2023-12-20T11:23:07;20.55;;;3.78;;
49223;SDS011;35050;51.316;5.994;2023-12-20T11:25:47;16.35;;;3.60;;
49223;SDS011;35050;51.316;5.994;2023-12-20T11:28:14;10.60;;;3.22;;
49223;SDS011;35050;51.316;5.994;2023-12-20T11:30:45;13.40;;;4.03;;
49223;SDS011;35050;51.316;5.994;2023-12-20T11:33:26;18.00;;;4.07;;
49223;SDS011;35050;51.316;5.994;2023-12-20T11:35:58;17.02;;;3.20;;
49223;SDS011;35050;51.316;5.994;2023-12-20T11:38:27;12.55;;;3.45;;
49223;SDS011;35050;51.316;5.994;2023-12-20T11:41:01;15.48;;;3.65;;
49223;SDS011;35050;51.316;5.994;2023-12-20T11:43:32;14.45;;;3.42;;
49223;SDS011;35050;51.316;5.994;2023-12-20T11:46:04;15.90;;;3.77;;
49223;SDS011;35050;51.316;5.994;2023-12-20T11:48:31;17.75;;;4.50;;
49223;SDS011;35050;51.316;5.994;2023-12-20T11:50:57;14.27;;;3.40;;
49223;SDS011;35050;51.316;5.994;2023-12-20T11:53:23;13.48;;;3.60;;
49223;SDS011;35050;51.316;5.994;2023-12-20T11:55:49;15.15;;;3.67;;
49223;SDS011;35050;51.316;5.994;2023-12-20T11:58:15;10.75;;;3.40;;
49223;SDS011;35050;51.316;5.994;2023-12-20T12:00:41;19.33;;;5.00;;
49223;SDS011;35050;51.316;5.994;2023-12-20T12:03:14;15.98;;;4.20;;
49223;SDS011;35050;51.316;5.994;2023-12-20T12:05:40;18.40;;;4.85;;
49223;SDS011;35050;51.316;5.994;2023-12-20T12:08:06;12.90;;;3.70;;
49223;SDS011;35050;51.316;5.994;2023-12-20T12:10:32;16.67;;;3.70;;
49223;SDS011;35050;51.316;5.994;2023-12-20T12:12:58;12.30;;;3.40;;
49223;SDS011;35050;51.316;5.994;2023-12-20T12:15:25;12.88;;;3.83;;
49223;SDS011;35050;51.316;5.994;2023-12-20T12:17:55;16.38;;;4.10;;
49223;SDS011;35050;51.316;5.994;2023-12-20T12:20:21;12.18;;;3.65;;
49223;SDS011;35050;51.316;5.994;2023-12-20T12:25:26;19.70;;;4.97;;
49223;SDS011;35050;51.316;5.994;2023-12-20T12:27:53;16.45;;;4.00;;
49223;SDS011;35050;51.316;5.994;2023-12-20T12:30:20;14.05;;;4.20;;
49223;SDS011;35050;51.316;5.994;2023-12-20T12:32:46;16.60;;;4.20;;
49223;SDS011;35050;51.316;5.994;2023-12-20T12:35:13;13.57;;;4.07;;
49223;SDS011;35050;51.316;5.994;2023-12-20T12:37:39;16.52;;;4.20;;
49223;SDS011;35050;51.316;5.994;2023-12-20T12:40:15;14.18;;;4.05;;
49223;SDS011;35050;51.316;5.994;2023-12-20T12:42:42;15.05;;;4.70;;
49223;SDS011;35050;51.316;5.994;2023-12-20T12:45:09;14.60;;;3.90;;
49223;SDS011;35050;51.316;5.994;2023-12-20T12:47:39;23.10;;;4.22;;
49223;SDS011;35050;51.316;5.994;2023-12-20T12:50:05;11.98;;;3.90;;
49223;SDS011;35050;51.316;5.994;2023-12-20T12:52:31;10.90;;;3.63;;
49223;SDS011;35050;51.316;5.994;2023-12-20T12:54:57;14.68;;;4.03;;
49223;SDS011;35050;51.316;5.994;2023-12-20T12:57:22;15.77;;;4.45;;
49223;SDS011;35050;51.316;5.994;2023-12-20T12:59:49;12.38;;;3.65;;
49223;SDS011;35050;51.316;5.994;2023-12-20T13:02:15;13.70;;;4.15;;
49223;SDS011;35050;51.316;5.994;2023-12-20T13:04:41;11.27;;;3.83;;
49223;SDS011;35050;51.316;5.994;2023-12-20T13:07:07;11.00;;;3.80;;
49223;SDS011;35050;51.316;5.994;2023-12-20T13:09:36;11.68;;;4.22;;
49223;SDS011;35050;51.316;5.994;2023-12-20T13:12:01;13.55;;;3.70;;
49223;SDS011;35050;51.316;5.994;2023-12-20T13:14:29;14.25;;;3.97;;
49223;SDS011;35050;51.316;5.994;2023-12-20T13:16:57;16.35;;;4.20;;
49223;SDS011;35050;51.316;5.994;2023-12-20T13:19:23;18.17;;;4.35;;
49223;SDS011;35050;51.316;5.994;2023-12-20T13:21:49;13.48;;;3.85;;
49223;SDS011;35050;51.316;5.994;2023-12-20T13:24:14;15.18;;;3.75;;
49223;SDS011;35050;51.316;5.994;2023-12-20T13:26:40;14.45;;;4.00;;
49223;SDS011;35050;51.316;5.994;2023-12-20T13:29:06;14.32;;;4.00;;
49223;SDS011;35050;51.316;5.994;2023-12-20T13:31:31;14.18;;;4.75;;
49223;SDS011;35050;51.316;5.994;2023-12-20T13:33:58;15.25;;;4.25;;
49223;SDS011;35050;51.316;5.994;2023-12-20T13:36:24;12.90;;;4.38;;
49223;SDS011;35050;51.316;5.994;2023-12-20T13:38:49;12.40;;;3.58;;
49223;SDS011;35050;51.316;5.994;2023-12-20T13:41:15;13.50;;;4.25;;
49223;SDS011;35050;51.316;5.994;2023-12-20T13:43:40;12.27;;;3.60;;
49223;SDS011;35050;51.316;5.994;2023-12-20T13:46:07;15.40;;;4.15;;
49223;SDS011;35050;51.316;5.994;2023-12-20T13:48:33;12.30;;;3.67;;
49223;SDS011;35050;51.316;5.994;2023-12-20T13:50:59;16.80;;;4.10;;
49223;SDS011;35050;51.316;5.994;2023-12-20T13:53:25;14.50;;;3.75;;
49223;SDS011;35050;51.316;5.994;2023-12-20T13:55:50;12.35;;;4.25;;
49223;SDS011;35050;51.316;5.994;2023-12-20T13:58:16;13.65;;;3.55;;
49223;SDS011;35050;51.316;5.994;2023-12-20T14:00:42;16.17;;;4.50;;
49223;SDS011;35050;51.316;5.994;2023-12-20T14:03:08;14.13;;;4.47;;
49223;SDS011;35050;51.316;5.994;2023-12-20T14:05:35;18.38;;;4.80;;
49223;SDS011;35050;51.316;5.994;2023-12-20T14:08:00;13.98;;;4.53;;
49223;SDS011;35050;51.316;5.994;2023-12-20T14:10:26;12.63;;;4.05;;
49223;SDS011;35050;51.316;5.994;2023-12-20T14:12:52;15.52;;;5.60;;
49223;SDS011;35050;51.316;5.994;2023-12-20T14:15:18;17.20;;;4.82;;
49223;SDS011;35050;51.316;5.994;2023-12-20T14:17:44;12.80;;;4.15;;
49223;SDS011;35050;51.316;5.994;2023-12-20T14:20:10;16.13;;;4.53;;
49223;SDS011;35050;51.316;5.994;2023-12-20T14:22:38;18.98;;;4.75;;
49223;SDS011;35050;51.316;5.994;2023-12-20T14:25:08;14.30;;;4.57;;
49223;SDS011;35050;51.316;5.994;2023-12-20T14:27:37;21.58;;;5.30;;
49223;SDS011;35050;51.316;5.994;2023-12-20T14:30:03;15.13;;;3.92;;
49223;SDS011;35050;51.316;5.994;2023-12-20T14:32:29;14.73;;;3.95;;
49223;SDS011;35050;51.316;5.994;2023-12-20T14:34:54;16.15;;;4.53;;
49223;SDS011;35050;51.316;5.994;2023-12-20T14:37:20;17.45;;;4.35;;